Chemical Voyager — 9HA4488 — position and weather

sailwx.info

Track history (hours):
 
Tides and Currents Weather Stations Pressure Air Temp Water Temp Dewpoint Dewpoint Depression Visibility Wind Speed Wind Dir Waves Ship Positions

Chemical Voyager

Last reported at 2017-Sep-19 21:35 UTC. Time now 2017-Sep-26 02:09 UTC.
Position N 39°53' E 023°11'.

Length 134 m; draft 9.4 m.

Type: Ship (hazmat cat B). MMSI: 248037000.

Date/timePositionNaut miles runAvg speedWind from/ knotsBaromVisibWave heightAir tempDewpointWater temp
2017-Sep-19 21:35N 39°53' E 023°11'212.6
2017-Sep-19 21:28N 39°51' E 023°12'612.6
2017-Sep-19 21:00N 39°47' E 023°16'1011.8
2017-Sep-19 20:08N 39°45' E 023°29'1512.9
2017-Sep-19 18:58N 39°44' E 023°49'612.6
2017-Sep-19 18:30N 39°44' E 023°57'612.5
2017-Sep-19 18:00N 39°44' E 024°05'612.1
2017-Sep-19 17:30N 39°44' E 024°13'612.0
2017-Sep-19 17:00N 39°43' E 024°20'612.0
2017-Sep-19 16:30N 39°39' E 024°25'612.4
2017-Sep-19 16:00N 39°33' E 024°30'612.2
2017-Sep-19 15:30N 39°28' E 024°34'611.5
2017-Sep-19 15:00N 39°23' E 024°37'611.2
2017-Sep-19 14:30N 39°18' E 024°41'611.3
2017-Sep-19 13:59N 39°13' E 024°44'611.9
2017-Sep-19 13:30N 39°08' E 024°48'812.0
2017-Sep-19 12:51N 39°01' E 024°53'612.6
2017-Sep-19 12:25N 38°56' E 024°51'512.6
2017-Sep-19 12:00N 38°51' E 024°50'612.4
2017-Sep-19 11:30N 38°45' E 024°49'612.1
2017-Sep-19 11:00N 38°39' E 024°47'711.8
2017-Sep-19 10:27N 38°32' E 024°45'5311.6
2017-Sep-19 05:55N 37°44' E 024°18'1012.0
2017-Sep-19 05:04N 37°35' E 024°12'211.9
2017-Sep-19 04:52N 37°33' E 024°11'611.6
2017-Sep-19 04:22N 37°27' E 024°10'411.5
2017-Sep-19 03:59N 37°23' E 024°09'511.4
2017-Sep-19 03:30N 37°18' E 024°08'611.3
2017-Sep-19 03:00N 37°12' E 024°08'611.4
2017-Sep-19 02:30N 37°06' E 024°07'611.5
2017-Sep-19 02:00N 37°01' E 024°05'611.8
2017-Sep-19 01:30N 36°55' E 024°04'611.9
2017-Sep-19 01:00N 36°49' E 024°02'612.2
2017-Sep-19 00:30N 36°45' E 023°57'612.4
2017-Sep-19 00:00N 36°40' E 023°52'612.3
2017-Sep-18 23:30N 36°35' E 023°47'612.1
2017-Sep-18 23:00N 36°31' E 023°42'612.1
2017-Sep-18 22:30N 36°26' E 023°37'1112.3
2017-Sep-18 21:37N 36°18' E 023°28'7611.5
2017-Sep-18 15:03N 36°04' E 021°56'012.6
2017-Sep-18 15:00N 36°04' E 021°55'612.8
2017-Sep-18 14:30N 36°04' E 021°48'612.6
2017-Sep-18 14:00N 36°05' E 021°40'33812.6
2017-Sep-17 11:11N 36°26' E 014°42'312.9
2017-Sep-17 10:55N 36°26' E 014°38'513.1
2017-Sep-17 10:30N 36°26' E 014°31'713.1
2017-Sep-17 10:00N 36°26' E 014°23'612.7
2017-Sep-17 09:30N 36°27' E 014°15'612.7
2017-Sep-17 09:00N 36°27' E 014°07'612.5
2017-Sep-17 08:30N 36°27' E 013°59'612.3
2017-Sep-17 08:00N 36°27' E 013°52'612.4
2017-Sep-17 07:30N 36°28' E 013°44'612.3
2017-Sep-17 06:59N 36°30' E 013°37'712.5
2017-Sep-17 06:25N 36°33' E 013°29'512.2
2017-Sep-17 05:59N 36°35' E 013°23'612.1
2017-Sep-17 05:30N 36°38' E 013°16'812.0
2017-Sep-17 04:52N 36°40' E 013°07'412.0
2017-Sep-17 04:29N 36°42' E 013°02'612.1
2017-Sep-17 04:00N 36°44' E 012°55'1912.4
2017-Sep-17 02:26N 36°52' E 012°33'612.8
2017-Sep-17 02:00N 36°54' E 012°26'612.5
2017-Sep-17 01:30N 36°57' E 012°19'612.5
2017-Sep-17 01:00N 36°59' E 012°12'1012.4
2017-Sep-17 00:13N 37°03' E 012°01'212.0
2017-Sep-17 00:00N 37°04' E 011°58'712.1
2017-Sep-16 23:25N 37°07' E 011°50'512.2
2017-Sep-16 23:00N 37°09' E 011°44'712.4
2017-Sep-16 22:24N 37°13' E 011°36'3112.6
2017-Sep-16 19:56N 37°25' E 011°00'612.7
2017-Sep-16 19:30N 37°27' E 010°54'712.6
2017-Sep-16 18:57N 37°30' E 010°46'1013.0
2017-Sep-16 18:10N 37°33' E 010°33'213.5
2017-Sep-16 17:59N 37°33' E 010°30'1313.5
2017-Sep-16 16:59N 37°34' E 010°13'613.2
2017-Sep-16 16:30N 37°34' E 010°05'613.1
2017-Sep-16 16:00N 37°36' E 009°57'713.1
2017-Sep-16 15:30N 37°38' E 009°49'1612.8
2017-Sep-16 14:15N 37°43' E 009°31'412.8
2017-Sep-16 13:58N 37°44' E 009°26'40712.2
2017-Sep-15 04:29N 37°05' E 000°55'812.6
2017-Sep-15 03:51N 37°02' E 000°46'612.4
2017-Sep-15 03:24N 37°00' E 000°39'612.3
2017-Sep-15 02:53N 36°58' E 000°32'612.7
2017-Sep-15 02:27N 36°57' E 000°25'1412.8
2017-Sep-15 01:23N 36°52' E 000°09'512.8
2017-Sep-15 01:00N 36°51' E 000°03'1712.9
2017-Sep-14 23:43N 36°45' W 000°16'1312.8
2017-Sep-14 22:41N 36°41' W 000°32'212.8
2017-Sep-14 22:30N 36°40' W 000°35'1312.7
2017-Sep-14 21:29N 36°36' W 000°50'812.8
2017-Sep-14 20:51N 36°34' W 000°59'512.9
2017-Sep-14 20:30N 36°33' W 001°05'713.3
2017-Sep-14 20:00N 36°30' W 001°12'713.8
2017-Sep-14 19:30N 36°28' W 001°21'713.8
2017-Sep-14 18:59N 36°26' W 001°29'713.7
2017-Sep-14 18:28N 36°24' W 001°37'2513.3
2017-Sep-14 16:36N 36°16' W 002°07'213.1
2017-Sep-14 16:29N 36°15' W 002°09'15013.2
2017-Sep-14 05:09N 36°00' W 005°13'212.7
2017-Sep-14 05:00N 36°00' W 005°15'611.8
2017-Sep-14 04:30N 35°59' W 005°22'611.4
2017-Sep-14 04:00N 35°57' W 005°29'1110.8
2017-Sep-14 02:58N 35°54' W 005°43'8611.6
2017-Sep-13 19:30N 36°07' W 007°28'812.3
2017-Sep-13 18:53N 36°08' W 007°38'612.4
2017-Sep-13 18:24N 36°10' W 007°45'1312.2
2017-Sep-13 17:18N 36°13' W 008°01'412.5
2017-Sep-13 16:57N 36°14' W 008°06'612.8
2017-Sep-13 16:28N 36°16' W 008°14'712.7
2017-Sep-13 15:56N 36°17' W 008°22'512.2
2017-Sep-13 15:29N 36°19' W 008°28'612.5
2017-Sep-13 15:01N 36°20' W 008°35'612.7
2017-Sep-13 14:30N 36°22' W 008°43'612.6
2017-Sep-13 14:00N 36°23' W 008°51'612.9
2017-Sep-13 13:30N 36°25' W 008°58'712.9
2017-Sep-13 12:56N 36°27' W 009°07'613.1
2017-Sep-13 12:29N 36°29' W 009°14'613.0
2017-Sep-13 11:59N 36°31' W 009°22'713.1
2017-Sep-13 11:25N 36°36' W 009°28'712.7
2017-Sep-13 10:53N 36°42' W 009°34'812.3
2017-Sep-13 10:16N 36°48' W 009°38'313.1
2017-Sep-13 10:00N 36°52' W 009°39'813.1
2017-Sep-13 09:26N 36°59' W 009°42'612.9
2017-Sep-13 08:56N 37°05' W 009°44'813.0
2017-Sep-13 08:19N 37°13' W 009°47'413.4
2017-Sep-13 08:00N 37°17' W 009°47'713.1
2017-Sep-13 07:30N 37°23' W 009°49'612.8
2017-Sep-13 07:01N 37°30' W 009°50'612.7
2017-Sep-13 06:31N 37°36' W 009°52'712.5
2017-Sep-13 05:59N 37°42' W 009°54'912.4
2017-Sep-13 05:15N 37°51' W 009°57'512.5
2017-Sep-13 04:53N 37°55' W 009°58'512.5
2017-Sep-13 04:29N 38°00' W 010°00'712.7
2017-Sep-13 03:57N 38°07' W 010°02'612.7
2017-Sep-13 03:31N 38°12' W 010°04'612.4
2017-Sep-13 03:00N 38°18' W 010°06'612.6
2017-Sep-13 02:31N 38°24' W 010°08'713.0
2017-Sep-13 02:00N 38°31' W 010°09'713.2
2017-Sep-13 01:29N 38°38' W 010°11'613.4
2017-Sep-13 01:00N 38°44' W 010°13'713.2
2017-Sep-13 00:31N 38°50' W 010°13'713.1
2017-Sep-13 00:01N 38°57' W 010°13'713.2
2017-Sep-12 23:30N 39°04' W 010°13'713.2
2017-Sep-12 23:01N 39°10' W 010°13'713.1
2017-Sep-12 22:31N 39°17' W 010°13'712.8
2017-Sep-12 22:00N 39°23' W 010°13'912.9
2017-Sep-12 21:20N 39°32' W 010°13'412.9
2017-Sep-12 21:00N 39°36' W 010°13'713.2
2017-Sep-12 20:30N 39°43' W 010°12'1513.1
2017-Sep-12 19:23N 39°57' W 010°12'  
2017-Sep-10 04:25N 49°46' W 003°31'512.9
2017-Sep-10 04:00N 49°49' W 003°24'713.5
2017-Sep-10 03:30N 49°52' W 003°15'713.8
2017-Sep-10 03:01N 49°55' W 003°05'713.9
2017-Sep-10 02:30N 49°59' W 002°56'713.5
2017-Sep-10 02:00N 50°01' W 002°46'713.1
2017-Sep-10 01:29N 50°02' W 002°36'2110.9
2017-Sep-09 23:35N 50°08' W 002°04'1 8.9
2017-Sep-09 23:30N 50°08' W 002°03'4 8.5
2017-Sep-09 23:00N 50°09' W 001°57'4 7.9
2017-Sep-09 22:30N 50°09' W 001°51'4 7.6
2017-Sep-09 22:00N 50°10' W 001°45'  
Track history (hours):
 
Tides and Currents Weather Stations Pressure Air Temp Water Temp Dewpoint Dewpoint Depression Visibility Wind Speed Wind Dir Waves Ship Positions

Chemical Voyager

Last reported at 2017-Sep-19 21:35 UTC. Time now 2017-Sep-26 02:09 UTC.
Position N 39°53' E 023°11'.

Length 134 m; draft 9.4 m.

Type: Ship (hazmat cat B). MMSI: 248037000.

Date/timePositionNaut miles runAvg speedWind from/ knotsBaromVisibWave heightAir tempDewpointWater temp
2017-Sep-19 21:35N 39°53' E 023°11'212.6
2017-Sep-19 21:28N 39°51' E 023°12'612.6
2017-Sep-19 21:00N 39°47' E 023°16'1011.8
2017-Sep-19 20:08N 39°45' E 023°29'1512.9
2017-Sep-19 18:58N 39°44' E 023°49'612.6
2017-Sep-19 18:30N 39°44' E 023°57'612.5
2017-Sep-19 18:00N 39°44' E 024°05'612.1
2017-Sep-19 17:30N 39°44' E 024°13'612.0
2017-Sep-19 17:00N 39°43' E 024°20'612.0
2017-Sep-19 16:30N 39°39' E 024°25'612.4
2017-Sep-19 16:00N 39°33' E 024°30'612.2
2017-Sep-19 15:30N 39°28' E 024°34'611.5
2017-Sep-19 15:00N 39°23' E 024°37'611.2
2017-Sep-19 14:30N 39°18' E 024°41'611.3
2017-Sep-19 13:59N 39°13' E 024°44'611.9
2017-Sep-19 13:30N 39°08' E 024°48'812.0
2017-Sep-19 12:51N 39°01' E 024°53'612.6
2017-Sep-19 12:25N 38°56' E 024°51'512.6
2017-Sep-19 12:00N 38°51' E 024°50'612.4
2017-Sep-19 11:30N 38°45' E 024°49'612.1
2017-Sep-19 11:00N 38°39' E 024°47'711.8
2017-Sep-19 10:27N 38°32' E 024°45'5311.6
2017-Sep-19 05:55N 37°44' E 024°18'1012.0
2017-Sep-19 05:04N 37°35' E 024°12'211.9
2017-Sep-19 04:52N 37°33' E 024°11'611.6
2017-Sep-19 04:22N 37°27' E 024°10'411.5
2017-Sep-19 03:59N 37°23' E 024°09'511.4
2017-Sep-19 03:30N 37°18' E 024°08'611.3
2017-Sep-19 03:00N 37°12' E 024°08'611.4
2017-Sep-19 02:30N 37°06' E 024°07'611.5
2017-Sep-19 02:00N 37°01' E 024°05'611.8
2017-Sep-19 01:30N 36°55' E 024°04'611.9
2017-Sep-19 01:00N 36°49' E 024°02'612.2
2017-Sep-19 00:30N 36°45' E 023°57'612.4
2017-Sep-19 00:00N 36°40' E 023°52'612.3
2017-Sep-18 23:30N 36°35' E 023°47'612.1
2017-Sep-18 23:00N 36°31' E 023°42'612.1
2017-Sep-18 22:30N 36°26' E 023°37'1112.3
2017-Sep-18 21:37N 36°18' E 023°28'7611.5
2017-Sep-18 15:03N 36°04' E 021°56'012.6
2017-Sep-18 15:00N 36°04' E 021°55'612.8
2017-Sep-18 14:30N 36°04' E 021°48'612.6
2017-Sep-18 14:00N 36°05' E 021°40'33812.6
2017-Sep-17 11:11N 36°26' E 014°42'312.9
2017-Sep-17 10:55N 36°26' E 014°38'513.1
2017-Sep-17 10:30N 36°26' E 014°31'713.1
2017-Sep-17 10:00N 36°26' E 014°23'612.7
2017-Sep-17 09:30N 36°27' E 014°15'612.7
2017-Sep-17 09:00N 36°27' E 014°07'612.5
2017-Sep-17 08:30N 36°27' E 013°59'612.3
2017-Sep-17 08:00N 36°27' E 013°52'612.4
2017-Sep-17 07:30N 36°28' E 013°44'612.3
2017-Sep-17 06:59N 36°30' E 013°37'712.5
2017-Sep-17 06:25N 36°33' E 013°29'512.2
2017-Sep-17 05:59N 36°35' E 013°23'612.1
2017-Sep-17 05:30N 36°38' E 013°16'812.0
2017-Sep-17 04:52N 36°40' E 013°07'412.0
2017-Sep-17 04:29N 36°42' E 013°02'612.1
2017-Sep-17 04:00N 36°44' E 012°55'1912.4
2017-Sep-17 02:26N 36°52' E 012°33'612.8
2017-Sep-17 02:00N 36°54' E 012°26'612.5
2017-Sep-17 01:30N 36°57' E 012°19'612.5
2017-Sep-17 01:00N 36°59' E 012°12'1012.4
2017-Sep-17 00:13N 37°03' E 012°01'212.0
2017-Sep-17 00:00N 37°04' E 011°58'712.1
2017-Sep-16 23:25N 37°07' E 011°50'512.2
2017-Sep-16 23:00N 37°09' E 011°44'712.4
2017-Sep-16 22:24N 37°13' E 011°36'3112.6
2017-Sep-16 19:56N 37°25' E 011°00'612.7
2017-Sep-16 19:30N 37°27' E 010°54'712.6
2017-Sep-16 18:57N 37°30' E 010°46'1013.0
2017-Sep-16 18:10N 37°33' E 010°33'213.5
2017-Sep-16 17:59N 37°33' E 010°30'1313.5
2017-Sep-16 16:59N 37°34' E 010°13'613.2
2017-Sep-16 16:30N 37°34' E 010°05'613.1
2017-Sep-16 16:00N 37°36' E 009°57'713.1
2017-Sep-16 15:30N 37°38' E 009°49'1612.8
2017-Sep-16 14:15N 37°43' E 009°31'412.8
2017-Sep-16 13:58N 37°44' E 009°26'40712.2
2017-Sep-15 04:29N 37°05' E 000°55'812.6
2017-Sep-15 03:51N 37°02' E 000°46'612.4
2017-Sep-15 03:24N 37°00' E 000°39'612.3
2017-Sep-15 02:53N 36°58' E 000°32'612.7
2017-Sep-15 02:27N 36°57' E 000°25'1412.8
2017-Sep-15 01:23N 36°52' E 000°09'512.8
2017-Sep-15 01:00N 36°51' E 000°03'1712.9
2017-Sep-14 23:43N 36°45' W 000°16'1312.8
2017-Sep-14 22:41N 36°41' W 000°32'212.8
2017-Sep-14 22:30N 36°40' W 000°35'1312.7
2017-Sep-14 21:29N 36°36' W 000°50'812.8
2017-Sep-14 20:51N 36°34' W 000°59'512.9
2017-Sep-14 20:30N 36°33' W 001°05'713.3
2017-Sep-14 20:00N 36°30' W 001°12'713.8
2017-Sep-14 19:30N 36°28' W 001°21'713.8
2017-Sep-14 18:59N 36°26' W 001°29'713.7
2017-Sep-14 18:28N 36°24' W 001°37'2513.3
2017-Sep-14 16:36N 36°16' W 002°07'213.1
2017-Sep-14 16:29N 36°15' W 002°09'15013.2
2017-Sep-14 05:09N 36°00' W 005°13'212.7
2017-Sep-14 05:00N 36°00' W 005°15'611.8
2017-Sep-14 04:30N 35°59' W 005°22'611.4
2017-Sep-14 04:00N 35°57' W 005°29'1110.8
2017-Sep-14 02:58N 35°54' W 005°43'8611.6
2017-Sep-13 19:30N 36°07' W 007°28'812.3
2017-Sep-13 18:53N 36°08' W 007°38'612.4
2017-Sep-13 18:24N 36°10' W 007°45'1312.2
2017-Sep-13 17:18N 36°13' W 008°01'412.5
2017-Sep-13 16:57N 36°14' W 008°06'612.8
2017-Sep-13 16:28N 36°16' W 008°14'712.7
2017-Sep-13 15:56N 36°17' W 008°22'512.2
2017-Sep-13 15:29N 36°19' W 008°28'612.5
2017-Sep-13 15:01N 36°20' W 008°35'612.7
2017-Sep-13 14:30N 36°22' W 008°43'612.6
2017-Sep-13 14:00N 36°23' W 008°51'612.9
2017-Sep-13 13:30N 36°25' W 008°58'712.9
2017-Sep-13 12:56N 36°27' W 009°07'613.1
2017-Sep-13 12:29N 36°29' W 009°14'613.0
2017-Sep-13 11:59N 36°31' W 009°22'713.1
2017-Sep-13 11:25N 36°36' W 009°28'712.7
2017-Sep-13 10:53N 36°42' W 009°34'812.3
2017-Sep-13 10:16N 36°48' W 009°38'313.1
2017-Sep-13 10:00N 36°52' W 009°39'813.1
2017-Sep-13 09:26N 36°59' W 009°42'612.9
2017-Sep-13 08:56N 37°05' W 009°44'813.0
2017-Sep-13 08:19N 37°13' W 009°47'413.4
2017-Sep-13 08:00N 37°17' W 009°47'713.1
2017-Sep-13 07:30N 37°23' W 009°49'612.8
2017-Sep-13 07:01N 37°30' W 009°50'612.7
2017-Sep-13 06:31N 37°36' W 009°52'712.5
2017-Sep-13 05:59N 37°42' W 009°54'912.4
2017-Sep-13 05:15N 37°51' W 009°57'512.5
2017-Sep-13 04:53N 37°55' W 009°58'512.5
2017-Sep-13 04:29N 38°00' W 010°00'712.7
2017-Sep-13 03:57N 38°07' W 010°02'612.7
2017-Sep-13 03:31N 38°12' W 010°04'612.4
2017-Sep-13 03:00N 38°18' W 010°06'612.6
2017-Sep-13 02:31N 38°24' W 010°08'713.0
2017-Sep-13 02:00N 38°31' W 010°09'713.2
2017-Sep-13 01:29N 38°38' W 010°11'613.4
2017-Sep-13 01:00N 38°44' W 010°13'713.2
2017-Sep-13 00:31N 38°50' W 010°13'713.1
2017-Sep-13 00:01N 38°57' W 010°13'713.2
2017-Sep-12 23:30N 39°04' W 010°13'713.2
2017-Sep-12 23:01N 39°10' W 010°13'713.1
2017-Sep-12 22:31N 39°17' W 010°13'712.8
2017-Sep-12 22:00N 39°23' W 010°13'912.9
2017-Sep-12 21:20N 39°32' W 010°13'412.9
2017-Sep-12 21:00N 39°36' W 010°13'713.2
2017-Sep-12 20:30N 39°43' W 010°12'1513.1
2017-Sep-12 19:23N 39°57' W 010°12'  
2017-Sep-10 04:25N 49°46' W 003°31'512.9
2017-Sep-10 04:00N 49°49' W 003°24'713.5
2017-Sep-10 03:30N 49°52' W 003°15'713.8
2017-Sep-10 03:01N 49°55' W 003°05'713.9
2017-Sep-10 02:30N 49°59' W 002°56'713.5
2017-Sep-10 02:00N 50°01' W 002°46'713.1
2017-Sep-10 01:29N 50°02' W 002°36'2110.9
2017-Sep-09 23:35N 50°08' W 002°04'1 8.9
2017-Sep-09 23:30N 50°08' W 002°03'4 8.5
2017-Sep-09 23:00N 50°09' W 001°57'4 7.9
2017-Sep-09 22:30N 50°09' W 001°51'4 7.6
2017-Sep-09 22:00N 50°10' W 001°45'  

Dump ship's entire track history